• Join FlightAware (Why Join?)
  • Login
  • US Flag 
07:54PM EST


 

Airport Tracker/Info


-or-


 

Live Flight TrackerFlight Track Log ✈ UPS1337 ✈ 20-Feb-2014 ✈ KPIE - KSDF

Flight Track Log - Related Links

Times and Time Zones

All times are in EST time to prevent confusion due to time zone crossing. See the UPS1337 flight status page for this flight to view local times or setup timezone preferences in your user account.

Time Position Orientation Groundspeed Altitude Reporting Facility
EST Latitude Longitude Course Direction KTS MPH feet Rate Location/Type
10:01PM 27.9000 -82.6833 180° South 177 204 800  Level Tampa TRACON
10:02PM 27.8500 -82.6833 180° South 215 247 1,800 2,100 Climbing Tampa TRACON
10:03PM 27.8167 -82.7167 221° Southwest 279 321 4,600 2,700 Climbing Tampa TRACON
10:05PM 27.9767 -82.7633 346° North 277 319 10,700 2,340 Climbing Jacksonville Center
10:06PM 28.0936 -82.7703 357° North 330 380 12,400 2,280 Climbing Jacksonville Center
10:07PM 28.2103 -82.7819 355° North 385 443 15,300 2,580 Climbing Jacksonville Center
10:08PM 28.3314 -82.7864 358° North 419 482 17,600 2,280 Climbing Jacksonville Center
10:09PM 28.4544 -82.8122 350° North 432 497 19,900 2,280 Climbing Jacksonville Center
10:10PM 28.5736 -82.8500 344° North 439 505 22,200 1,980 Climbing Jacksonville Center
10:11PM 28.6694 -82.8831 343° North 445 512 23,900 1,680 Climbing Jacksonville Center
10:12PM 28.8072 -82.9233 346° North 450 518 25,600 1,560 Climbing Jacksonville Center
10:13PM 28.9325 -82.9614 345° North 455 524 27,100 1,560 Climbing Jacksonville Center
10:14PM 29.0619 -82.9994 346° North 467 537 28,800 1,800 Climbing Jacksonville Center
10:15PM 29.1914 -83.0378 346° North 467 537 30,700 1,560 Climbing Jacksonville Center
10:16PM 29.3186 -83.0783 344° North 472 543 32,000 600 Climbing Jacksonville Center
10:17PM 29.4417 -83.1167 345° North 472 543 32,000  Level Jacksonville Center
10:18PM 29.5689 -83.1528 346° North 467 537 32,000  Level Jacksonville Center
10:24PM 30.2936 -83.3728 346° North 487 560 32,000  Level FlightAware ADS-B (KTLH)
10:24PM 30.3499 -83.3902 345° North 469 540 32,000  Level FlightAware ADS-B (KTLH)
10:26PM 30.6205 -83.4736 345° North 470 541 32,000  Level FlightAware ADS-B (KTLH)
10:27PM 30.6891 -83.4948 345° North 470 541 32,000  Level FlightAware ADS-B (KTLH)
10:29PM 30.9645 -83.5805 345° North 470 541 32,000  Level FlightAware ADS-B (KTLH)
10:29PM 31.0241 -83.5990 345° North 470 541 32,000  Level FlightAware ADS-B (KTLH)
10:30PM 31.1103 -83.6258 345° North 470 541 32,000  Level FlightAware ADS-B (KTLH)
10:31PM 31.1657 -83.6432 345° North 470 541 32,000  Level FlightAware ADS-B (KTLH)
10:31PM 31.2494 -83.6722 345° North 451 519 32,000  Level Atlanta Center
10:32PM 31.3767 -83.7131 345° North 456 525 32,000  Level Atlanta Center
10:33PM 31.5000 -83.7514 345° North 461 531 32,000  Level Atlanta Center
10:34PM 31.6378 -83.7972 344° North 461 531 32,000  Level Atlanta Center
10:35PM 31.7611 -83.8336 346° North 475 547 32,000  Level Atlanta Center
10:36PM 31.8906 -83.8750 345° North 480 552 32,000  Level Atlanta Center
10:37PM 32.0261 -83.9164 345° North 472 543 32,000  Level Atlanta Center
10:38PM 32.1514 -83.9578 344° North 467 537 32,000  Level Atlanta Center
10:39PM 32.2789 -83.9969 345° North 467 537 32,000  Level Atlanta Center
10:40PM 32.4083 -84.0389 345° North 467 537 32,000  Level Atlanta Center
10:41PM 32.5356 -84.0808 344° North 472 543 32,000  Level Atlanta Center
10:42PM 32.6628 -84.1203 345° North 472 543 32,000  Level Atlanta Center
10:43PM 32.7881 -84.1622 344° North 472 543 32,000  Level Atlanta Center
10:44PM 32.9133 -84.2094 342° North 467 537 32,000  Level Atlanta Center
10:45PM 33.0386 -84.2469 346° North 467 537 32,000  Level Atlanta Center
10:46PM 33.1658 -84.2894 344° North 467 537 32,000  Level Atlanta Center
10:47PM 33.2950 -84.3297 345° North 474 545 32,000  Level Atlanta Center
10:53PM 34.0812 -84.5468 345° North 474 545 32,000  Level FlightAware ADS-B (KDZJ)
10:54PM 34.1703 -84.5689 348° North 476 548 32,000  Level FlightAware ADS-B (KDZJ)
10:55PM 34.2568 -84.5903 348° North 489 563 32,000  Level FlightAware ADS-B (KDZJ)
10:55PM 34.3032 -84.5963 354° North 501 577 32,000  Level FlightAware ADS-B (KDZJ)
10:56PM 34.3506 -84.5890 North 513 590 32,000  Level FlightAware ADS-B (KDZJ)
10:56PM 34.4397 -84.5510 19° North 518 596 32,000  Level FlightAware ADS-B (KDZJ)
10:57PM 34.5300 -84.5102 20° North 516 594 32,000  Level FlightAware ADS-B (KDZJ)
10:57PM 34.6191 -84.4705 20° North 517 595 32,000  Level FlightAware ADS-B (KDZJ)
10:58PM 34.7103 -84.4300 20° North 518 596 32,000  Level FlightAware ADS-B (KDZJ)
10:59PM 34.7977 -84.3913 20° North 518 596 32,000  Level FlightAware ADS-B (KDZJ)
10:59PM 34.8881 -84.3510 20° North 511 588 32,000  Level FlightAware ADS-B (KDZJ)
11:00PM 34.9796 -84.3103 20° North 514 592 32,000  Level FlightAware ADS-B (KDZJ)
11:01PM 35.0665 -84.2718 20° North 516 594 32,000  Level FlightAware ADS-B (KDZJ)
11:01PM 35.1616 -84.2291 20° North 528 608 32,000  Level FlightAware ADS-B (KDZJ)
11:02PM 35.2303 -84.1981 20° North 530 610 32,000  Level FlightAware ADS-B (KDZJ)
11:03PM 35.3152 -84.1599 20° North 528 608 32,000  Level FlightAware ADS-B (KDZJ)
11:03PM 35.4053 -84.1203 20° North 516 594 32,000  Level Atlanta Center
11:04PM 35.5408 -84.0567 21° North 516 594 32,000  Level Atlanta Center
11:05PM 35.6786 -83.9953 20° North 516 594 32,000  Level Atlanta Center
11:06PM 35.8142 -83.9364 19° North 516 594 32,000  Level Atlanta Center
11:07PM 35.9475 -83.8797 19° North 511 588 32,000  Level Atlanta Center
11:08PM 36.0853 -83.8333 15° North 505 581 32,000  Level Atlanta Center
11:09PM 36.2292 -83.7864 15° North 506 582 32,000  Level Atlanta Center
11:10PM 36.3792 -83.7344 16° North 506 582 32,000  Level Atlanta Center
11:12PM 36.5839 -83.6631 16° North 517 595 32,000  Level Indianapolis Center
11:13PM 36.7222 -83.6158 15° North 516 594 32,000  Level Indianapolis Center
11:14PM 36.8633 -83.5678 15° North 516 594 32,000  Level Indianapolis Center
11:15PM 37.0050 -83.5183 16° North 519 597 32,000  Level Indianapolis Center
11:16PM 37.1486 -83.4694 15° North 523 602 32,000 300 Level Indianapolis Center
11:21PM 37.9437 -83.2155 15° North 504 580 34,000 300 Climbing FlightAware ADS-B
11:22PM 37.9529 -83.2168 354° North 494 568 34,000  Level FlightAware ADS-B
11:22PM 38.0126 -83.2350 346° North 450 518 34,000  Level FlightAware ADS-B
11:23PM 38.0764 -83.2959 323° Northwest 428 493 34,000  Level FlightAware ADS-B
11:23PM 38.1149 -83.3669 305° West 420 483 34,000  Level FlightAware ADS-B
11:24PM 38.1556 -83.4444 304° West 423 487 34,000  Level FlightAware ADS-B
11:24PM 38.1889 -83.5059 305° West 423 487 34,000  Level FlightAware ADS-B
11:25PM 38.2656 -83.6436 305° West 420 483 34,000  Level FlightAware ADS-B
11:26PM 38.3163 -83.7449 303° West 407 468 34,000  Level FlightAware ADS-B
11:27PM 38.3377 -83.8280 288° West 399 459 34,000  Level FlightAware ADS-B
11:28PM 38.3629 -83.9229 289° West 395 455 34,000 -1,260 Level FlightAware ADS-B
11:32PM 38.4190 -84.4920 277° West 339 390 27,700 -1,680 Descending FlightAware ADS-B (KCVG)
11:33PM 38.3984 -84.5645 250° West 337 388 25,600 -2,820 Descending FlightAware ADS-B (KCVG)
11:33PM 38.3823 -84.6214 250° West 338 389 24,400 -2,220 Descending FlightAware ADS-B (KCVG)
11:34PM 38.3652 -84.6820 250° West 326 375 23,100 -2,460 Descending FlightAware ADS-B (KCVG)
11:34PM 38.3459 -84.7485 250° West 322 371 21,600 -2,880 Descending FlightAware ADS-B (KCVG)
11:35PM 38.3241 -84.8240 250° West 311 358 19,500 -2,760 Descending FlightAware ADS-B (KCVG)
11:36PM 38.2892 -84.9347 250° West 306 352 16,500 -2,460 Descending Indianapolis Center
11:37PM 38.2639 -85.0250 250° West 283 326 14,300 -2,580 Descending Indianapolis Center
11:38PM 38.2400 -85.1075 250° West 262 302 11,300 -2,520 Descending Indianapolis Center
11:39PM 38.2144 -85.1864 248° West 251 289 9,200 -2,400 Descending Indianapolis Center
11:40PM 38.1572 -85.2397 216° Southwest 240 276 6,500 -2,100 Descending Indianapolis Center
11:41PM 38.1003 -85.2878 214° Southwest 240 276 5,000 -960 Descending Indianapolis Center
11:42PM 38.0675 -85.3481 235° Southwest 224 258 4,600 -540 Descending Indianapolis Center
11:46PM 38.1000 -85.5000 293° West 133 153 2,900 -420 Descending Louisville TRACON
11:48PM 38.1500 -85.6167 302° West 112 129 2,200 -300 Descending Louisville TRACON
11:50PM 38.1667 -85.7333 302° West  Level FlightAware Approximate
11:57PM 38.1741 -85.7365 302° West  Level Estimated
11:58PM 38.1741 -85.7365 302° West  Level Estimated
11:59PM 38.1741 -85.7365 302° West  Level Estimated